sensor_id;sensor_type;location;lat;lon;timestamp;temperature;humidity
2565;DHT22;1292;48.020;7.822;2023-04-08T05:47:12;7.60;99.90
2565;DHT22;1292;48.020;7.822;2023-04-08T05:49:39;7.70;99.90
2565;DHT22;1292;48.020;7.822;2023-04-08T05:52:06;7.70;99.90
2565;DHT22;1292;48.020;7.822;2023-04-08T05:54:32;7.70;99.90
2565;DHT22;1292;48.020;7.822;2023-04-08T05:56:59;7.70;99.90
2565;DHT22;1292;48.020;7.822;2023-04-08T05:59:26;7.70;99.90
2565;DHT22;1292;48.020;7.822;2023-04-08T06:01:53;7.60;99.90
2565;DHT22;1292;48.020;7.822;2023-04-08T06:04:22;7.40;99.90
2565;DHT22;1292;48.020;7.822;2023-04-08T06:06:49;7.40;99.90
2565;DHT22;1292;48.020;7.822;2023-04-08T06:09:16;7.50;99.90
2565;DHT22;1292;48.020;7.822;2023-04-08T06:11:42;7.60;99.90
2565;DHT22;1292;48.020;7.822;2023-04-08T06:14:11;7.60;99.90
2565;DHT22;1292;48.020;7.822;2023-04-08T06:16:38;7.60;99.90
2565;DHT22;1292;48.020;7.822;2023-04-08T06:19:05;7.60;99.90
2565;DHT22;1292;48.020;7.822;2023-04-08T06:21:33;7.60;99.90
2565;DHT22;1292;48.020;7.822;2023-04-08T06:24:00;7.60;99.90
2565;DHT22;1292;48.020;7.822;2023-04-08T06:26:27;7.80;99.90
2565;DHT22;1292;48.020;7.822;2023-04-08T06:28:54;7.90;99.90
2565;DHT22;1292;48.020;7.822;2023-04-08T06:31:21;7.90;99.90
2565;DHT22;1292;48.020;7.822;2023-04-08T06:33:49;7.90;99.90
2565;DHT22;1292;48.020;7.822;2023-04-08T06:36:16;7.90;99.90
2565;DHT22;1292;48.020;7.822;2023-04-08T06:38:45;7.70;99.90
2565;DHT22;1292;48.020;7.822;2023-04-08T06:41:12;7.80;99.90
2565;DHT22;1292;48.020;7.822;2023-04-08T06:43:38;7.80;99.90
2565;DHT22;1292;48.020;7.822;2023-04-08T06:46:05;7.90;99.90
2565;DHT22;1292;48.020;7.822;2023-04-08T06:48:33;7.90;99.90
2565;DHT22;1292;48.020;7.822;2023-04-08T06:51:00;7.80;99.90
2565;DHT22;1292;48.020;7.822;2023-04-08T06:53:27;7.70;99.90
2565;DHT22;1292;48.020;7.822;2023-04-08T06:55:57;7.60;99.90
2565;DHT22;1292;48.020;7.822;2023-04-08T06:58:23;7.70;99.90
2565;DHT22;1292;48.020;7.822;2023-04-08T07:00:52;7.90;99.90
2565;DHT22;1292;48.020;7.822;2023-04-08T07:03:19;8.00;99.90
2565;DHT22;1292;48.020;7.822;2023-04-08T07:05:46;8.10;99.90
2565;DHT22;1292;48.020;7.822;2023-04-08T07:08:13;8.20;99.90
2565;DHT22;1292;48.020;7.822;2023-04-08T07:10:40;8.40;99.90
2565;DHT22;1292;48.020;7.822;2023-04-08T07:13:08;8.40;99.90
2565;DHT22;1292;48.020;7.822;2023-04-08T07:15:35;8.50;99.90
2565;DHT22;1292;48.020;7.822;2023-04-08T07:18:02;8.60;99.90
2565;DHT22;1292;48.020;7.822;2023-04-08T07:20:29;8.70;99.90
2565;DHT22;1292;48.020;7.822;2023-04-08T07:22:55;8.80;99.90
2565;DHT22;1292;48.020;7.822;2023-04-08T07:25:22;8.70;99.90
2565;DHT22;1292;48.020;7.822;2023-04-08T07:27:49;8.70;99.90
2565;DHT22;1292;48.020;7.822;2023-04-08T07:30:18;8.70;99.90
2565;DHT22;1292;48.020;7.822;2023-04-08T07:32:46;8.70;99.90
2565;DHT22;1292;48.020;7.822;2023-04-08T07:35:13;8.70;99.90
2565;DHT22;1292;48.020;7.822;2023-04-08T07:37:43;8.60;99.90
2565;DHT22;1292;48.020;7.822;2023-04-08T07:40:11;8.70;99.90
2565;DHT22;1292;48.020;7.822;2023-04-08T07:42:38;8.90;99.90
2565;DHT22;1292;48.020;7.822;2023-04-08T07:45:05;9.00;99.90
2565;DHT22;1292;48.020;7.822;2023-04-08T07:47:34;9.00;99.90
2565;DHT22;1292;48.020;7.822;2023-04-08T07:50:01;9.00;99.90
2565;DHT22;1292;48.020;7.822;2023-04-08T07:52:29;9.10;99.90
2565;DHT22;1292;48.020;7.822;2023-04-08T07:54:56;9.30;99.90
2565;DHT22;1292;48.020;7.822;2023-04-08T07:57:22;9.40;99.90
2565;DHT22;1292;48.020;7.822;2023-04-08T07:59:49;9.50;99.90
2565;DHT22;1292;48.020;7.822;2023-04-08T08:02:16;9.60;99.90
2565;DHT22;1292;48.020;7.822;2023-04-08T08:04:44;9.60;99.90
2565;DHT22;1292;48.020;7.822;2023-04-08T08:07:11;9.60;99.90
2565;DHT22;1292;48.020;7.822;2023-04-08T08:09:38;9.60;99.90
2565;DHT22;1292;48.020;7.822;2023-04-08T08:12:04;9.70;99.90
2565;DHT22;1292;48.020;7.822;2023-04-08T08:14:31;9.70;99.90
2565;DHT22;1292;48.020;7.822;2023-04-08T08:16:58;9.70;99.90
2565;DHT22;1292;48.020;7.822;2023-04-08T08:19:26;9.80;99.90
2565;DHT22;1292;48.020;7.822;2023-04-08T08:21:54;10.00;99.90
2565;DHT22;1292;48.020;7.822;2023-04-08T08:24:21;10.10;99.90
2565;DHT22;1292;48.020;7.822;2023-04-08T08:26:48;10.10;99.90
2565;DHT22;1292;48.020;7.822;2023-04-08T08:29:15;10.20;99.90
2565;DHT22;1292;48.020;7.822;2023-04-08T08:31:42;10.20;99.90
2565;DHT22;1292;48.020;7.822;2023-04-08T08:34:08;10.30;99.90
2565;DHT22;1292;48.020;7.822;2023-04-08T08:36:35;10.50;99.90
2565;DHT22;1292;48.020;7.822;2023-04-08T08:39:03;10.50;99.90
2565;DHT22;1292;48.020;7.822;2023-04-08T08:41:32;10.50;99.90
2565;DHT22;1292;48.020;7.822;2023-04-08T08:44:01;10.30;99.90
2565;DHT22;1292;48.020;7.822;2023-04-08T08:46:28;10.50;99.90
2565;DHT22;1292;48.020;7.822;2023-04-08T08:48:56;10.60;99.90
2565;DHT22;1292;48.020;7.822;2023-04-08T08:51:23;10.70;99.90
2565;DHT22;1292;48.020;7.822;2023-04-08T08:53:50;10.80;99.90
2565;DHT22;1292;48.020;7.822;2023-04-08T08:56:18;10.80;99.90
2565;DHT22;1292;48.020;7.822;2023-04-08T08:58:46;10.80;99.90
2565;DHT22;1292;48.020;7.822;2023-04-08T09:01:32;10.80;99.90
2565;DHT22;1292;48.020;7.822;2023-04-08T09:04:07;11.00;99.90
2565;DHT22;1292;48.020;7.822;2023-04-08T09:06:35;11.10;99.90
2565;DHT22;1292;48.020;7.822;2023-04-08T09:09:02;11.10;99.90
2565;DHT22;1292;48.020;7.822;2023-04-08T09:11:31;11.40;99.90
2565;DHT22;1292;48.020;7.822;2023-04-08T09:13:58;11.70;99.90
2565;DHT22;1292;48.020;7.822;2023-04-08T09:16:25;12.10;99.90
2565;DHT22;1292;48.020;7.822;2023-04-08T09:18:52;12.20;99.90
2565;DHT22;1292;48.020;7.822;2023-04-08T09:21:22;12.20;99.90
2565;DHT22;1292;48.020;7.822;2023-04-08T09:23:52;11.80;99.90
2565;DHT22;1292;48.020;7.822;2023-04-08T09:26:21;11.60;99.90
2565;DHT22;1292;48.020;7.822;2023-04-08T09:29:00;11.60;99.90
2565;DHT22;1292;48.020;7.822;2023-04-08T09:31:29;11.70;99.90
2565;DHT22;1292;48.020;7.822;2023-04-08T09:33:57;11.40;99.90
2565;DHT22;1292;48.020;7.822;2023-04-08T09:36:25;11.40;99.90
2565;DHT22;1292;48.020;7.822;2023-04-08T09:38:53;11.30;99.90
2565;DHT22;1292;48.020;7.822;2023-04-08T09:41:21;11.40;99.90
2565;DHT22;1292;48.020;7.822;2023-04-08T09:43:49;11.40;99.90
2565;DHT22;1292;48.020;7.822;2023-04-08T09:46:24;11.40;99.90
2565;DHT22;1292;48.020;7.822;2023-04-08T09:48:57;11.40;99.90
2565;DHT22;1292;48.020;7.822;2023-04-08T09:51:30;11.50;99.90
2565;DHT22;1292;48.020;7.822;2023-04-08T09:54:02;11.50;99.90
2565;DHT22;1292;48.020;7.822;2023-04-08T09:56:38;11.50;99.90
2565;DHT22;1292;48.020;7.822;2023-04-08T09:59:12;11.40;99.90
2565;DHT22;1292;48.020;7.822;2023-04-08T10:01:46;11.40;99.90
2565;DHT22;1292;48.020;7.822;2023-04-08T10:04:17;11.20;99.90
2565;DHT22;1292;48.020;7.822;2023-04-08T10:06:48;11.30;99.90
2565;DHT22;1292;48.020;7.822;2023-04-08T10:09:18;11.20;99.90
2565;DHT22;1292;48.020;7.822;2023-04-08T10:11:45;11.30;99.90
2565;DHT22;1292;48.020;7.822;2023-04-08T10:14:13;11.30;99.90
2565;DHT22;1292;48.020;7.822;2023-04-08T10:16:39;11.30;99.90
2565;DHT22;1292;48.020;7.822;2023-04-08T10:19:35;11.10;99.90
2565;DHT22;1292;48.020;7.822;2023-04-08T10:25:27;11.30;99.90
2565;DHT22;1292;48.020;7.822;2023-04-08T10:27:54;11.30;99.90
2565;DHT22;1292;48.020;7.822;2023-04-08T10:30:43;11.20;99.90
2565;DHT22;1292;48.020;7.822;2023-04-08T10:33:12;11.10;99.90
2565;DHT22;1292;48.020;7.822;2023-04-08T10:35:43;11.00;99.90
2565;DHT22;1292;48.020;7.822;2023-04-08T10:38:13;11.00;99.90
2565;DHT22;1292;48.020;7.822;2023-04-08T10:40:41;10.90;99.90
2565;DHT22;1292;48.020;7.822;2023-04-08T10:43:10;11.00;99.90
2565;DHT22;1292;48.020;7.822;2023-04-08T10:45:37;11.10;99.90
2565;DHT22;1292;48.020;7.822;2023-04-08T10:48:14;11.10;99.90
2565;DHT22;1292;48.020;7.822;2023-04-08T10:50:44;11.20;99.90
2565;DHT22;1292;48.020;7.822;2023-04-08T10:53:24;11.30;99.90
2565;DHT22;1292;48.020;7.822;2023-04-08T10:55:51;11.20;99.90
2565;DHT22;1292;48.020;7.822;2023-04-08T10:58:18;11.40;99.90
2565;DHT22;1292;48.020;7.822;2023-04-08T11:00:45;11.50;99.90
2565;DHT22;1292;48.020;7.822;2023-04-08T11:03:11;11.70;99.90
2565;DHT22;1292;48.020;7.822;2023-04-08T11:05:38;11.90;99.90
2565;DHT22;1292;48.020;7.822;2023-04-08T11:08:07;12.20;99.90
2565;DHT22;1292;48.020;7.822;2023-04-08T11:10:36;12.30;99.90
2565;DHT22;1292;48.020;7.822;2023-04-08T11:13:06;12.40;99.90
2565;DHT22;1292;48.020;7.822;2023-04-08T11:15:35;12.60;99.90
2565;DHT22;1292;48.020;7.822;2023-04-08T11:18:02;12.60;99.90
2565;DHT22;1292;48.020;7.822;2023-04-08T11:20:31;12.60;99.90
2565;DHT22;1292;48.020;7.822;2023-04-08T11:22:59;12.50;99.90
2565;DHT22;1292;48.020;7.822;2023-04-08T11:25:27;12.30;99.90
2565;DHT22;1292;48.020;7.822;2023-04-08T11:27:54;12.40;99.90
2565;DHT22;1292;48.020;7.822;2023-04-08T11:30:22;12.40;99.90
2565;DHT22;1292;48.020;7.822;2023-04-08T11:32:49;12.50;99.90
2565;DHT22;1292;48.020;7.822;2023-04-08T11:35:16;12.50;99.90
2565;DHT22;1292;48.020;7.822;2023-04-08T11:37:43;12.40;99.90
2565;DHT22;1292;48.020;7.822;2023-04-08T11:40:12;12.50;99.90
2565;DHT22;1292;48.020;7.822;2023-04-08T11:42:40;12.40;99.90
2565;DHT22;1292;48.020;7.822;2023-04-08T11:45:11;12.60;99.90
2565;DHT22;1292;48.020;7.822;2023-04-08T11:47:38;12.50;99.90
2565;DHT22;1292;48.020;7.822;2023-04-08T11:50:06;12.30;99.90
2565;DHT22;1292;48.020;7.822;2023-04-08T11:52:43;12.30;99.90
2565;DHT22;1292;48.020;7.822;2023-04-08T11:55:10;12.30;99.90
2565;DHT22;1292;48.020;7.822;2023-04-08T11:57:37;12.30;99.90
2565;DHT22;1292;48.020;7.822;2023-04-08T12:00:07;12.30;99.90
2565;DHT22;1292;48.020;7.822;2023-04-08T12:02:34;12.50;99.90
2565;DHT22;1292;48.020;7.822;2023-04-08T12:05:01;12.60;99.90
2565;DHT22;1292;48.020;7.822;2023-04-08T12:07:28;12.70;99.90
2565;DHT22;1292;48.020;7.822;2023-04-08T12:09:55;12.70;99.90
2565;DHT22;1292;48.020;7.822;2023-04-08T12:12:22;12.80;99.90
2565;DHT22;1292;48.020;7.822;2023-04-08T12:14:49;12.80;99.90
2565;DHT22;1292;48.020;7.822;2023-04-08T12:17:17;12.90;99.90
2565;DHT22;1292;48.020;7.822;2023-04-08T12:19:43;13.10;99.90
2565;DHT22;1292;48.020;7.822;2023-04-08T12:22:11;13.30;99.90
2565;DHT22;1292;48.020;7.822;2023-04-08T12:24:38;13.50;99.90
2565;DHT22;1292;48.020;7.822;2023-04-08T12:27:04;13.50;99.90
2565;DHT22;1292;48.020;7.822;2023-04-08T12:29:31;13.50;99.90
2565;DHT22;1292;48.020;7.822;2023-04-08T12:31:58;13.70;99.90
2565;DHT22;1292;48.020;7.822;2023-04-08T12:34:28;13.80;99.90
2565;DHT22;1292;48.020;7.822;2023-04-08T12:36:54;13.90;99.90
2565;DHT22;1292;48.020;7.822;2023-04-08T12:39:21;14.10;99.90
2565;DHT22;1292;48.020;7.822;2023-04-08T12:41:48;14.30;99.90
2565;DHT22;1292;48.020;7.822;2023-04-08T12:44:15;14.50;99.90
2565;DHT22;1292;48.020;7.822;2023-04-08T12:46:41;14.40;99.90
2565;DHT22;1292;48.020;7.822;2023-04-08T12:49:08;14.30;99.90
2565;DHT22;1292;48.020;7.822;2023-04-08T12:51:38;14.10;99.90
2565;DHT22;1292;48.020;7.822;2023-04-08T12:54:05;14.00;99.90
2565;DHT22;1292;48.020;7.822;2023-04-08T12:56:32;13.90;99.90
2565;DHT22;1292;48.020;7.822;2023-04-08T12:58:59;14.00;99.90
2565;DHT22;1292;48.020;7.822;2023-04-08T13:01:26;13.80;99.90
2565;DHT22;1292;48.020;7.822;2023-04-08T13:03:53;13.60;99.90
2565;DHT22;1292;48.020;7.822;2023-04-08T13:06:20;13.40;99.90
2565;DHT22;1292;48.020;7.822;2023-04-08T13:08:48;13.20;99.90
2565;DHT22;1292;48.020;7.822;2023-04-08T13:11:14;13.10;99.90
2565;DHT22;1292;48.020;7.822;2023-04-08T13:13:41;12.90;99.90
2565;DHT22;1292;48.020;7.822;2023-04-08T13:16:08;12.80;99.90
2565;DHT22;1292;48.020;7.822;2023-04-08T13:18:35;12.90;99.90
2565;DHT22;1292;48.020;7.822;2023-04-08T13:21:02;12.80;99.90
2565;DHT22;1292;48.020;7.822;2023-04-08T13:23:28;12.70;99.90
2565;DHT22;1292;48.020;7.822;2023-04-08T13:25:57;12.70;99.90
2565;DHT22;1292;48.020;7.822;2023-04-08T13:28:23;12.90;99.90
2565;DHT22;1292;48.020;7.822;2023-04-08T13:30:50;12.90;99.90
2565;DHT22;1292;48.020;7.822;2023-04-08T13:33:18;13.00;99.90
2565;DHT22;1292;48.020;7.822;2023-04-08T13:35:45;13.10;99.90
2565;DHT22;1292;48.020;7.822;2023-04-08T13:38:11;13.00;99.90
2565;DHT22;1292;48.020;7.822;2023-04-08T13:40:38;13.00;99.90
2565;DHT22;1292;48.020;7.822;2023-04-08T13:43:07;12.80;99.90
2565;DHT22;1292;48.020;7.822;2023-04-08T13:45:34;12.90;99.90
2565;DHT22;1292;48.020;7.822;2023-04-08T13:48:01;13.00;99.90
2565;DHT22;1292;48.020;7.822;2023-04-08T13:50:27;13.00;99.90
2565;DHT22;1292;48.020;7.822;2023-04-08T13:52:55;12.90;99.90
2565;DHT22;1292;48.020;7.822;2023-04-08T13:55:22;12.90;99.90
2565;DHT22;1292;48.020;7.822;2023-04-08T13:57:48;13.00;99.90
2565;DHT22;1292;48.020;7.822;2023-04-08T14:00:17;13.00;99.90
2565;DHT22;1292;48.020;7.822;2023-04-08T14:02:43;13.00;99.90
2565;DHT22;1292;48.020;7.822;2023-04-08T14:05:10;13.00;99.90
2565;DHT22;1292;48.020;7.822;2023-04-08T14:07:37;13.00;99.90
2565;DHT22;1292;48.020;7.822;2023-04-08T14:10:05;12.90;99.90
2565;DHT22;1292;48.020;7.822;2023-04-08T14:12:32;12.80;99.90
2565;DHT22;1292;48.020;7.822;2023-04-08T14:14:59;12.90;99.90
2565;DHT22;1292;48.020;7.822;2023-04-08T14:17:28;12.90;99.90
2565;DHT22;1292;48.020;7.822;2023-04-08T14:19:55;12.80;99.90
2565;DHT22;1292;48.020;7.822;2023-04-08T14:22:23;12.80;99.90
2565;DHT22;1292;48.020;7.822;2023-04-08T14:24:50;12.70;99.90
2565;DHT22;1292;48.020;7.822;2023-04-08T14:27:17;12.80;99.90
2565;DHT22;1292;48.020;7.822;2023-04-08T14:29:44;12.80;99.90
2565;DHT22;1292;48.020;7.822;2023-04-08T14:32:11;12.70;99.90
2565;DHT22;1292;48.020;7.822;2023-04-08T14:34:39;12.70;99.90
2565;DHT22;1292;48.020;7.822;2023-04-08T14:37:06;12.70;99.90
2565;DHT22;1292;48.020;7.822;2023-04-08T14:39:33;12.60;99.90
2565;DHT22;1292;48.020;7.822;2023-04-08T14:42:00;12.60;99.90
2565;DHT22;1292;48.020;7.822;2023-04-08T14:44:27;12.50;99.90
2565;DHT22;1292;48.020;7.822;2023-04-08T14:46:54;12.50;99.90
2565;DHT22;1292;48.020;7.822;2023-04-08T14:49:21;12.60;99.90
2565;DHT22;1292;48.020;7.822;2023-04-08T14:51:49;12.60;99.90
2565;DHT22;1292;48.020;7.822;2023-04-08T14:54:16;12.60;99.90
2565;DHT22;1292;48.020;7.822;2023-04-08T14:56:43;12.60;99.90
2565;DHT22;1292;48.020;7.822;2023-04-08T14:59:10;12.50;99.90
2565;DHT22;1292;48.020;7.822;2023-04-08T15:01:37;12.50;99.90
2565;DHT22;1292;48.020;7.822;2023-04-08T15:04:04;12.50;99.90
2565;DHT22;1292;48.020;7.822;2023-04-08T15:06:31;12.50;99.90
2565;DHT22;1292;48.020;7.822;2023-04-08T15:08:59;12.50;99.90
2565;DHT22;1292;48.020;7.822;2023-04-08T15:11:26;12.50;99.90
2565;DHT22;1292;48.020;7.822;2023-04-08T15:13:53;12.50;99.90
2565;DHT22;1292;48.020;7.822;2023-04-08T15:16:20;12.40;99.90
2565;DHT22;1292;48.020;7.822;2023-04-08T15:18:47;12.30;99.90
2565;DHT22;1292;48.020;7.822;2023-04-08T15:21:13;12.30;99.90
2565;DHT22;1292;48.020;7.822;2023-04-08T15:23:40;12.40;99.90
2565;DHT22;1292;48.020;7.822;2023-04-08T15:26:09;12.30;99.90
2565;DHT22;1292;48.020;7.822;2023-04-08T15:28:36;12.30;99.90
2565;DHT22;1292;48.020;7.822;2023-04-08T15:31:04;12.40;99.90
2565;DHT22;1292;48.020;7.822;2023-04-08T15:33:31;12.50;99.90
2565;DHT22;1292;48.020;7.822;2023-04-08T15:35:58;12.50;99.90
2565;DHT22;1292;48.020;7.822;2023-04-08T15:38:28;12.50;99.90
2565;DHT22;1292;48.020;7.822;2023-04-08T15:40:55;12.60;99.90
2565;DHT22;1292;48.020;7.822;2023-04-08T15:43:23;12.60;99.90
2565;DHT22;1292;48.020;7.822;2023-04-08T15:45:50;12.70;99.90
2565;DHT22;1292;48.020;7.822;2023-04-08T15:48:16;12.80;99.90
2565;DHT22;1292;48.020;7.822;2023-04-08T15:50:44;12.90;99.90
2565;DHT22;1292;48.020;7.822;2023-04-08T15:53:10;12.90;99.90
2565;DHT22;1292;48.020;7.822;2023-04-08T15:55:38;13.00;99.90
2565;DHT22;1292;48.020;7.822;2023-04-08T15:58:05;13.00;99.90
2565;DHT22;1292;48.020;7.822;2023-04-08T16:00:33;13.00;99.90
2565;DHT22;1292;48.020;7.822;2023-04-08T16:03:01;13.00;99.90
2565;DHT22;1292;48.020;7.822;2023-04-08T16:05:29;13.00;99.90
2565;DHT22;1292;48.020;7.822;2023-04-08T16:07:58;13.00;99.90
2565;DHT22;1292;48.020;7.822;2023-04-08T16:10:25;13.00;99.90
2565;DHT22;1292;48.020;7.822;2023-04-08T16:12:52;13.00;99.90
2565;DHT22;1292;48.020;7.822;2023-04-08T16:15:19;13.00;99.90
2565;DHT22;1292;48.020;7.822;2023-04-08T16:17:50;13.00;99.90
2565;DHT22;1292;48.020;7.822;2023-04-08T16:20:18;13.00;99.90
2565;DHT22;1292;48.020;7.822;2023-04-08T16:22:45;13.00;99.90
2565;DHT22;1292;48.020;7.822;2023-04-08T16:25:12;12.90;99.90
2565;DHT22;1292;48.020;7.822;2023-04-08T16:27:39;12.90;99.90
2565;DHT22;1292;48.020;7.822;2023-04-08T16:30:07;12.90;99.90
2565;DHT22;1292;48.020;7.822;2023-04-08T16:32:34;12.90;99.90
2565;DHT22;1292;48.020;7.822;2023-04-08T16:35:02;12.90;99.90
2565;DHT22;1292;48.020;7.822;2023-04-08T16:37:30;12.90;99.90
2565;DHT22;1292;48.020;7.822;2023-04-08T16:39:56;12.90;99.90
2565;DHT22;1292;48.020;7.822;2023-04-08T16:42:23;12.90;99.90
2565;DHT22;1292;48.020;7.822;2023-04-08T16:44:54;12.80;99.90
2565;DHT22;1292;48.020;7.822;2023-04-08T16:47:22;12.80;99.90
2565;DHT22;1292;48.020;7.822;2023-04-08T16:49:50;12.80;99.90
2565;DHT22;1292;48.020;7.822;2023-04-08T16:52:18;12.80;99.90
2565;DHT22;1292;48.020;7.822;2023-04-08T16:54:45;12.80;99.90
2565;DHT22;1292;48.020;7.822;2023-04-08T16:57:12;12.80;99.90
2565;DHT22;1292;48.020;7.822;2023-04-08T16:59:38;12.80;99.90
2565;DHT22;1292;48.020;7.822;2023-04-08T17:02:06;12.80;99.90
2565;DHT22;1292;48.020;7.822;2023-04-08T17:04:33;12.80;99.90
2565;DHT22;1292;48.020;7.822;2023-04-08T17:07:00;12.70;99.90
2565;DHT22;1292;48.020;7.822;2023-04-08T17:09:29;12.70;99.90
2565;DHT22;1292;48.020;7.822;2023-04-08T17:11:56;12.70;99.90
2565;DHT22;1292;48.020;7.822;2023-04-08T17:14:22;12.70;99.90
2565;DHT22;1292;48.020;7.822;2023-04-08T17:16:49;12.70;99.90
2565;DHT22;1292;48.020;7.822;2023-04-08T17:19:16;12.70;99.90
2565;DHT22;1292;48.020;7.822;2023-04-08T17:21:43;12.70;99.90
2565;DHT22;1292;48.020;7.822;2023-04-08T17:24:10;12.70;99.90
2565;DHT22;1292;48.020;7.822;2023-04-08T17:26:39;12.70;99.90
2565;DHT22;1292;48.020;7.822;2023-04-08T17:29:06;12.70;99.90
2565;DHT22;1292;48.020;7.822;2023-04-08T17:31:33;12.60;99.90
2565;DHT22;1292;48.020;7.822;2023-04-08T17:34:00;12.60;99.90
2565;DHT22;1292;48.020;7.822;2023-04-08T17:36:27;12.60;99.90
2565;DHT22;1292;48.020;7.822;2023-04-08T17:38:54;12.50;99.90
2565;DHT22;1292;48.020;7.822;2023-04-08T17:41:22;12.50;99.90
2565;DHT22;1292;48.020;7.822;2023-04-08T17:43:50;12.40;99.90
2565;DHT22;1292;48.020;7.822;2023-04-08T17:46:17;12.40;99.90
2565;DHT22;1292;48.020;7.822;2023-04-08T17:48:43;12.30;99.90
2565;DHT22;1292;48.020;7.822;2023-04-08T17:51:10;12.30;99.90
2565;DHT22;1292;48.020;7.822;2023-04-08T17:53:37;12.20;99.90
2565;DHT22;1292;48.020;7.822;2023-04-08T17:56:04;12.20;99.90
2565;DHT22;1292;48.020;7.822;2023-04-08T17:58:31;12.20;99.90
2565;DHT22;1292;48.020;7.822;2023-04-08T18:00:59;12.20;99.90
2565;DHT22;1292;48.020;7.822;2023-04-08T18:03:26;12.10;99.90
2565;DHT22;1292;48.020;7.822;2023-04-08T18:05:53;12.00;99.90
2565;DHT22;1292;48.020;7.822;2023-04-08T18:08:20;12.00;99.90
2565;DHT22;1292;48.020;7.822;2023-04-08T18:10:47;12.00;99.90
2565;DHT22;1292;48.020;7.822;2023-04-08T18:13:14;12.00;99.90
2565;DHT22;1292;48.020;7.822;2023-04-08T18:15:40;12.00;99.90
2565;DHT22;1292;48.020;7.822;2023-04-08T18:18:09;12.10;99.90
2565;DHT22;1292;48.020;7.822;2023-04-08T18:20:36;12.10;99.90
2565;DHT22;1292;48.020;7.822;2023-04-08T18:23:02;12.10;99.90
2565;DHT22;1292;48.020;7.822;2023-04-08T18:25:29;12.10;99.90
2565;DHT22;1292;48.020;7.822;2023-04-08T18:27:57;12.00;99.90
2565;DHT22;1292;48.020;7.822;2023-04-08T18:30:24;12.00;99.90
2565;DHT22;1292;48.020;7.822;2023-04-08T18:32:51;12.10;99.90
2565;DHT22;1292;48.020;7.822;2023-04-08T18:35:19;12.10;99.90
2565;DHT22;1292;48.020;7.822;2023-04-08T18:37:46;12.10;99.90
2565;DHT22;1292;48.020;7.822;2023-04-08T18:40:13;12.00;99.90
2565;DHT22;1292;48.020;7.822;2023-04-08T18:42:40;11.90;99.90
2565;DHT22;1292;48.020;7.822;2023-04-08T18:45:07;11.90;99.90
2565;DHT22;1292;48.020;7.822;2023-04-08T18:47:34;11.90;99.90
2565;DHT22;1292;48.020;7.822;2023-04-08T18:50:01;11.90;99.90
2565;DHT22;1292;48.020;7.822;2023-04-08T18:52:29;11.80;99.90
2565;DHT22;1292;48.020;7.822;2023-04-08T18:54:56;11.80;99.90
2565;DHT22;1292;48.020;7.822;2023-04-08T18:57:24;11.90;99.90
2565;DHT22;1292;48.020;7.822;2023-04-08T18:59:51;11.90;99.90
2565;DHT22;1292;48.020;7.822;2023-04-08T19:02:18;11.90;99.90
2565;DHT22;1292;48.020;7.822;2023-04-08T19:04:45;11.90;99.90
2565;DHT22;1292;48.020;7.822;2023-04-08T19:07:11;11.90;99.90
2565;DHT22;1292;48.020;7.822;2023-04-08T19:09:39;11.90;99.90
2565;DHT22;1292;48.020;7.822;2023-04-08T19:12:06;11.90;99.90
2565;DHT22;1292;48.020;7.822;2023-04-08T19:14:33;11.90;99.90
2565;DHT22;1292;48.020;7.822;2023-04-08T19:17:00;11.90;99.90
2565;DHT22;1292;48.020;7.822;2023-04-08T19:19:26;11.80;99.90
2565;DHT22;1292;48.020;7.822;2023-04-08T19:21:53;11.70;99.90
2565;DHT22;1292;48.020;7.822;2023-04-08T19:24:20;11.60;99.90
2565;DHT22;1292;48.020;7.822;2023-04-08T19:26:48;11.60;99.90
2565;DHT22;1292;48.020;7.822;2023-04-08T19:29:17;11.60;99.90
2565;DHT22;1292;48.020;7.822;2023-04-08T19:31:47;11.60;99.90
2565;DHT22;1292;48.020;7.822;2023-04-08T19:34:14;11.50;99.90
2565;DHT22;1292;48.020;7.822;2023-04-08T19:36:41;11.40;99.90
2565;DHT22;1292;48.020;7.822;2023-04-08T19:39:07;11.40;99.90
2565;DHT22;1292;48.020;7.822;2023-04-08T19:41:34;11.50;99.90
2565;DHT22;1292;48.020;7.822;2023-04-08T19:44:02;11.40;99.90
2565;DHT22;1292;48.020;7.822;2023-04-08T19:46:29;11.50;99.90
2565;DHT22;1292;48.020;7.822;2023-04-08T19:48:57;11.50;99.90
2565;DHT22;1292;48.020;7.822;2023-04-08T19:51:24;11.50;99.90
2565;DHT22;1292;48.020;7.822;2023-04-08T19:53:51;11.50;99.90
2565;DHT22;1292;48.020;7.822;2023-04-08T19:56:19;11.50;99.90
2565;DHT22;1292;48.020;7.822;2023-04-08T19:58:46;11.50;99.90
2565;DHT22;1292;48.020;7.822;2023-04-08T20:01:14;11.50;99.90
2565;DHT22;1292;48.020;7.822;2023-04-08T20:03:41;11.50;99.90
2565;DHT22;1292;48.020;7.822;2023-04-08T20:06:14;11.50;99.90
2565;DHT22;1292;48.020;7.822;2023-04-08T20:08:41;11.50;99.90
2565;DHT22;1292;48.020;7.822;2023-04-08T20:11:08;11.40;99.90
2565;DHT22;1292;48.020;7.822;2023-04-08T20:13:34;11.40;99.90
2565;DHT22;1292;48.020;7.822;2023-04-08T20:16:01;11.40;99.90
2565;DHT22;1292;48.020;7.822;2023-04-08T20:18:29;11.30;99.90
2565;DHT22;1292;48.020;7.822;2023-04-08T20:20:56;11.30;99.90
2565;DHT22;1292;48.020;7.822;2023-04-08T20:23:24;11.20;99.90
2565;DHT22;1292;48.020;7.822;2023-04-08T20:25:51;11.10;99.90
2565;DHT22;1292;48.020;7.822;2023-04-08T20:28:17;11.10;99.90
2565;DHT22;1292;48.020;7.822;2023-04-08T20:30:45;11.00;99.90
2565;DHT22;1292;48.020;7.822;2023-04-08T20:33:12;11.00;99.90
2565;DHT22;1292;48.020;7.822;2023-04-08T20:35:40;10.80;99.90
2565;DHT22;1292;48.020;7.822;2023-04-08T20:38:07;10.50;99.90
2565;DHT22;1292;48.020;7.822;2023-04-08T20:40:34;10.40;99.90
2565;DHT22;1292;48.020;7.822;2023-04-08T20:43:01;10.30;99.90
2565;DHT22;1292;48.020;7.822;2023-04-08T20:45:27;10.30;99.90
2565;DHT22;1292;48.020;7.822;2023-04-08T20:47:55;10.30;99.90
2565;DHT22;1292;48.020;7.822;2023-04-08T20:50:21;10.20;99.90
2565;DHT22;1292;48.020;7.822;2023-04-08T20:52:50;10.20;99.90
2565;DHT22;1292;48.020;7.822;2023-04-08T20:55:17;10.10;99.90
2565;DHT22;1292;48.020;7.822;2023-04-08T20:57:44;10.00;99.90
